Time;durP1;ratioP1;P1;durP2;ratioP2;P2;SDS_P1;SDS_P2;PMS_P1;PMS_P2;Temp;Humidity;BMP_temperature;BMP_pressure;BME280_temperature;BME280_humidity;BME280_pressure;Samples;Min_cycle;Max_cycle;Signal;HPM_P1;HPM_P2
2023/11/11 00:00:18;;;;;;;9.55;2.83;;;10.00;99.90;;;;;;4248715;27;20122;-54
2023/11/11 00:02:20;;;;;;;10.45;2.30;;;10.00;99.90;;;;;;4248918;27;20066;-54
2023/11/11 00:04:24;;;;;;;8.80;2.83;;;10.00;99.90;;;;;;4248920;27;20043;-54
2023/11/11 00:06:27;;;;;;;;;;;10.10;99.90;;;;;;4249546;27;20078;-58
2023/11/11 00:08:29;;;;;;;6.82;2.30;;;10.00;99.90;;;;;;4248877;27;19919;-54
2023/11/11 00:10:31;;;;;;;11.15;3.08;;;9.90;99.90;;;;;;4249354;27;20039;-54
2023/11/11 00:12:34;;;;;;;11.23;2.58;;;10.00;99.90;;;;;;4249766;27;20043;-55
2023/11/11 00:14:37;;;;;;;6.72;2.67;;;10.00;99.90;;;;;;4249291;27;20053;-54
2023/11/11 00:16:39;;;;;;;10.75;2.85;;;9.90;99.90;;;;;;4249401;27;20043;-54
2023/11/11 00:18:41;;;;;;;7.63;2.33;;;9.90;99.90;;;;;;4248607;27;20066;-54
2023/11/11 00:20:48;;;;;;;8.45;2.55;;;9.90;99.90;;;;;;4248875;27;20046;-56
2023/11/11 00:22:52;;;;;;;7.90;2.20;;;9.90;99.90;;;;;;4247832;27;20130;-54
2023/11/11 00:24:55;;;;;;;7.53;2.88;;;9.90;99.90;;;;;;4248647;27;20040;-54
2023/11/11 00:26:58;;;;;;;11.07;2.40;;;10.00;99.90;;;;;;4248441;27;20258;-54
2023/11/11 00:29:00;;;;;;;8.15;2.50;;;9.90;99.90;;;;;;4248469;27;20051;-55
2023/11/11 00:31:08;;;;;;;7.47;2.75;;;9.80;99.90;;;;;;4248270;27;20039;-55
2023/11/11 00:33:10;;;;;;;6.28;2.10;;;9.80;99.90;;;;;;4248334;27;20050;-55
2023/11/11 00:35:12;;;;;;;9.52;2.35;;;9.80;99.90;;;;;;4229183;28;20122;-54
2023/11/11 00:37:17;;;;;;;5.30;2.63;;;9.90;99.90;;;;;;4248199;27;20039;-53
2023/11/11 00:39:22;;;;;;;7.50;2.28;;;9.80;99.90;;;;;;4248319;27;20054;-55
2023/11/11 00:41:25;;;;;;;6.72;2.25;;;9.80;99.90;;;;;;4248472;27;20451;-54
2023/11/11 00:43:27;;;;;;;9.48;2.85;;;9.80;99.90;;;;;;4247981;27;20047;-54
2023/11/11 00:45:29;;;;;;;10.05;2.55;;;9.80;99.90;;;;;;4247671;27;20071;-55
2023/11/11 00:47:31;;;;;;;5.40;2.10;;;9.80;99.90;;;;;;4247977;27;20062;-55
2023/11/11 00:49:33;;;;;;;8.23;2.00;;;9.90;99.90;;;;;;4247499;27;20047;-54
2023/11/11 00:51:38;;;;;;;10.18;2.70;;;9.80;99.90;;;;;;4229757;28;20071;-56
2023/11/11 00:53:41;;;;;;;6.97;2.25;;;9.90;99.90;;;;;;4249436;27;20416;-55
2023/11/11 00:55:44;;;;;;;8.38;2.47;;;9.80;99.90;;;;;;4249705;27;20050;-59
2023/11/11 00:57:46;;;;;;;7.70;2.08;;;9.90;99.90;;;;;;4250115;27;20107;-56
2023/11/11 00:59:48;;;;;;;13.52;2.92;;;9.80;99.90;;;;;;4249796;27;20050;-55
2023/11/11 01:01:50;;;;;;;9.52;2.75;;;9.80;99.90;;;;;;4249912;27;20054;-56
2023/11/11 01:03:52;;;;;;;8.45;1.98;;;9.90;99.90;;;;;;4250322;27;20047;-60
2023/11/11 01:05:55;;;;;;;7.47;2.10;;;9.80;99.90;;;;;;4250546;27;20047;-59
2023/11/11 01:07:57;;;;;;;7.47;2.40;;;9.80;99.90;;;;;;4250081;27;20138;-54
2023/11/11 01:10:00;;;;;;;6.63;2.35;;;9.90;99.90;;;;;;4249554;27;20039;-57
2023/11/11 01:12:02;;;;;;;10.15;2.80;;;9.90;99.90;;;;;;4250129;28;20452;-56
2023/11/11 01:14:05;;;;;;;5.57;1.92;;;9.90;99.90;;;;;;4249578;28;20039;-57
2023/11/11 01:16:07;;;;;;;9.02;2.70;;;9.80;99.90;;;;;;4249915;28;20047;-58
2023/11/11 01:18:09;;;;;;;8.55;2.83;;;9.80;99.90;;;;;;4250138;28;20047;-54
2023/11/11 01:20:14;;;;;;;8.40;2.78;;;9.80;99.90;;;;;;4249853;28;20097;-55
2023/11/11 01:22:16;;;;;;;7.45;2.47;;;9.80;99.90;;;;;;4249801;28;20050;-59
2023/11/11 01:24:19;;;;;;;7.82;2.25;;;9.70;99.90;;;;;;4248611;28;20039;-54
2023/11/11 01:26:25;;;;;;;8.07;2.20;;;9.80;99.90;;;;;;4247836;28;20054;-54
2023/11/11 01:28:27;;;;;;;8.70;2.40;;;9.70;99.90;;;;;;4247619;28;20053;-54
2023/11/11 01:30:29;;;;;;;6.45;2.10;;;9.80;99.90;;;;;;4247683;28;20058;-55
2023/11/11 01:32:32;;;;;;;6.95;2.60;;;9.80;99.90;;;;;;4247854;28;20096;-54
2023/11/11 01:34:34;;;;;;;8.55;2.33;;;9.80;99.90;;;;;;4247919;28;20051;-54
2023/11/11 01:36:37;;;;;;;8.27;2.10;;;9.90;99.90;;;;;;4247381;28;20479;-58
2023/11/11 01:38:40;;;;;;;6.20;2.10;;;9.80;99.90;;;;;;4247720;28;20055;-55
2023/11/11 01:40:42;;;;;;;10.18;2.28;;;9.90;99.90;;;;;;4248338;28;20070;-59
2023/11/11 01:42:46;;;;;;;7.28;2.17;;;9.90;99.90;;;;;;4230080;28;20047;-54
2023/11/11 01:44:49;;;;;;;6.57;2.13;;;9.90;99.90;;;;;;4248198;28;20088;-55
2023/11/11 01:46:51;;;;;;;8.88;2.03;;;9.90;99.90;;;;;;4250059;27;20051;-54
2023/11/11 01:48:53;;;;;;;7.05;1.90;;;9.90;99.90;;;;;;4251704;27;20047;-55
2023/11/11 01:50:56;;;;;;;8.98;2.20;;;9.90;99.90;;;;;;4251483;27;20074;-54
2023/11/11 01:52:58;;;;;;;5.65;2.00;;;9.90;99.90;;;;;;4251932;27;20067;-56
2023/11/11 01:55:01;;;;;;;7.90;2.25;;;9.80;99.90;;;;;;4251403;27;20130;-54
2023/11/11 01:57:05;;;;;;;6.88;2.28;;;10.00;99.90;;;;;;4250842;27;20039;-57
2023/11/11 01:59:11;;;;;;;6.60;2.45;;;9.90;99.90;;;;;;4251107;27;20075;-54
2023/11/11 02:01:13;;;;;;;8.40;2.33;;;9.90;99.90;;;;;;4250525;27;20053;-55
2023/11/11 02:03:15;;;;;;;6.32;1.90;;;9.90;99.90;;;;;;4250326;27;20660;-54
2023/11/11 02:05:19;;;;;;;8.98;2.35;;;10.00;99.90;;;;;;4250406;27;20142;-53
2023/11/11 02:07:22;;;;;;;4.72;1.77;;;9.90;99.90;;;;;;4250225;27;20058;-54
2023/11/11 02:09:24;;;;;;;6.60;1.65;;;9.90;99.90;;;;;;4250433;27;20051;-54
2023/11/11 02:11:26;;;;;;;6.05;1.98;;;9.80;99.90;;;;;;4250011;27;20410;-54
2023/11/11 02:13:34;;;;;;;5.00;2.33;;;9.90;99.90;;;;;;4250193;27;20046;-54
2023/11/11 02:15:37;;;;;;;6.60;2.20;;;10.00;99.90;;;;;;4250352;27;20043;-55
2023/11/11 02:17:40;;;;;;;6.15;1.73;;;10.00;99.90;;;;;;4231928;28;20074;-55
2023/11/11 02:19:42;;;;;;;4.72;1.95;;;10.00;99.90;;;;;;4250234;27;20129;-54
2023/11/11 02:21:45;;;;;;;7.55;2.40;;;10.00;99.90;;;;;;4250190;27;20043;-54
2023/11/11 02:23:50;;;;;;;6.22;1.83;;;10.00;99.90;;;;;;4249850;27;20134;-54
2023/11/11 02:25:52;;;;;;;;;;;10.10;99.90;;;;;;4265945;27;20047;-54
2023/11/11 02:27:54;;;;;;;9.15;1.95;;;10.20;99.90;;;;;;4249948;27;19934;-54
2023/11/11 02:29:56;;;;;;;8.38;1.92;;;10.10;99.90;;;;;;4250127;27;20067;-54
2023/11/11 02:31:58;;;;;;;6.35;1.67;;;10.10;99.90;;;;;;4249813;27;20406;-55
2023/11/11 02:34:00;;;;;;;5.47;1.73;;;10.10;99.90;;;;;;4249932;27;20043;-54
2023/11/11 02:36:02;;;;;;;6.70;1.95;;;10.10;99.90;;;;;;4249982;27;20051;-54
2023/11/11 02:38:04;;;;;;;5.82;1.90;;;10.10;99.90;;;;;;4249645;27;20080;-54
2023/11/11 02:40:12;;;;;;;5.57;2.10;;;10.10;99.90;;;;;;4231247;28;20048;-53
2023/11/11 02:42:14;;;;;;;7.40;1.67;;;10.00;99.90;;;;;;4249649;27;20053;-54
2023/11/11 02:44:16;;;;;;;7.03;1.95;;;10.00;99.90;;;;;;4249792;27;20486;-55
2023/11/11 02:46:19;;;;;;;5.07;1.70;;;10.00;99.90;;;;;;4249526;27;20462;-54
2023/11/11 02:48:21;;;;;;;6.80;2.17;;;10.00;99.90;;;;;;4249834;27;20047;-55
2023/11/11 02:50:23;;;;;;;4.03;1.60;;;10.00;99.90;;;;;;4249546;27;20112;-53
2023/11/11 02:52:26;;;;;;;8.98;2.20;;;10.10;99.90;;;;;;4249486;27;20039;-54
2023/11/11 02:54:29;;;;;;;7.40;2.22;;;10.00;99.90;;;;;;4249328;27;20051;-55
2023/11/11 02:56:32;;;;;;;6.60;2.17;;;10.00;99.90;;;;;;4249535;27;20051;-53
2023/11/11 02:58:34;;;;;;;6.25;1.98;;;10.00;99.90;;;;;;4248640;27;20043;-53
2023/11/11 03:00:39;;;;;;;8.55;2.00;;;10.10;99.90;;;;;;4231398;28;20050;-55
2023/11/11 03:02:42;;;;;;;5.20;2.10;;;10.10;99.90;;;;;;4249363;27;20062;-54
2023/11/11 03:04:44;;;;;;;5.28;1.73;;;10.10;99.90;;;;;;4249394;27;20062;-53
2023/11/11 03:06:46;;;;;;;4.15;1.73;;;10.10;99.90;;;;;;4249405;27;20066;-55
2023/11/11 03:08:48;;;;;;;5.63;2.20;;;10.10;99.90;;;;;;4249952;27;20055;-55
2023/11/11 03:10:51;;;;;;;4.93;1.92;;;10.00;99.90;;;;;;4249678;27;20074;-52
2023/11/11 03:12:55;;;;;;;8.63;2.40;;;10.10;99.90;;;;;;4249733;27;20541;-55
2023/11/11 03:14:59;;;;;;;4.72;1.85;;;10.10;99.90;;;;;;4249072;27;20051;-54
2023/11/11 03:17:01;;;;;;;4.80;1.50;;;10.10;99.90;;;;;;4251340;27;20401;-59
2023/11/11 03:19:04;;;;;;;6.18;2.25;;;10.10;99.90;;;;;;4251259;27;20436;-64
2023/11/11 03:21:07;;;;;;;5.47;1.75;;;10.10;99.90;;;;;;4250447;27;20054;-57
2023/11/11 03:23:09;;;;;;;6.80;1.95;;;10.10;99.90;;;;;;4249923;27;20039;-58
2023/11/11 03:25:12;;;;;;;6.40;2.00;;;10.20;99.90;;;;;;4248960;27;20080;-54
2023/11/11 03:27:14;;;;;;;6.93;2.13;;;10.20;99.90;;;;;;4249443;27;20051;-54
2023/11/11 03:29:18;;;;;;;6.18;1.83;;;10.30;99.90;;;;;;4249026;27;20047;-53
2023/11/11 03:31:20;;;;;;;4.93;1.83;;;10.30;99.90;;;;;;4249031;27;20048;-54
2023/11/11 03:33:22;;;;;;;3.80;2.03;;;10.40;99.90;;;;;;4248989;27;20103;-53
2023/11/11 03:35:24;;;;;;;4.65;1.67;;;10.30;99.90;;;;;;4249477;27;20047;-54
2023/11/11 03:37:27;;;;;;;6.13;1.90;;;10.30;99.90;;;;;;4249277;27;20407;-53
2023/11/11 03:39:31;;;;;;;4.40;1.88;;;10.40;99.90;;;;;;4248643;27;20053;-55
2023/11/11 03:41:33;;;;;;;;;;;10.40;99.90;;;;;;4249271;27;20335;-52
2023/11/11 03:43:35;;;;;;;7.90;2.20;;;10.30;99.90;;;;;;4248761;27;19927;-53
2023/11/11 03:45:39;;;;;;;5.53;1.95;;;10.30;99.90;;;;;;4247680;27;20118;-54
2023/11/11 03:47:41;;;;;;;4.50;1.60;;;10.30;99.90;;;;;;4248298;27;20046;-56
2023/11/11 03:49:43;;;;;;;6.18;1.92;;;10.30;99.90;;;;;;4248202;27;20478;-54
2023/11/11 03:51:45;;;;;;;5.82;1.67;;;10.20;99.90;;;;;;4248011;27;20043;-54
2023/11/11 03:53:47;;;;;;;4.10;1.80;;;10.20;99.90;;;;;;4248379;27;20104;-55
2023/11/11 03:55:50;;;;;;;9.15;1.70;;;10.20;99.90;;;;;;4248827;27;20127;-54
2023/11/11 03:57:51;;;;;;;7.60;2.25;;;10.10;99.90;;;;;;4248566;27;20043;-54
2023/11/11 03:59:54;;;;;;;7.15;2.42;;;10.10;99.90;;;;;;4248505;27;20131;-55
2023/11/11 04:01:58;;;;;;;4.53;1.33;;;10.00;99.90;;;;;;4248435;27;20047;-53
2023/11/11 04:04:01;;;;;;;6.32;2.08;;;10.00;99.90;;;;;;4248200;27;20510;-53
2023/11/11 04:06:03;;;;;;;9.60;2.30;;;9.90;99.90;;;;;;4248709;27;20047;-53
2023/11/11 04:08:06;;;;;;;5.13;2.05;;;9.90;99.90;;;;;;4248080;27;20043;-54
2023/11/11 04:10:09;;;;;;;6.68;1.65;;;9.90;99.90;;;;;;4248259;27;20053;-54
2023/11/11 04:12:11;;;;;;;7.38;2.00;;;9.90;99.90;;;;;;4248473;27;20047;-55
2023/11/11 04:14:13;;;;;;;5.43;1.85;;;10.00;99.90;;;;;;4248186;27;20054;-54
2023/11/11 04:16:16;;;;;;;5.60;1.75;;;10.10;99.90;;;;;;4248183;27;20039;-54
2023/11/11 04:18:19;;;;;;;16.10;2.10;;;10.10;99.90;;;;;;4248316;27;20051;-54
2023/11/11 04:20:21;;;;;;;7.10;1.73;;;10.10;99.90;;;;;;4248128;27;20043;-54
2023/11/11 04:22:23;;;;;;;7.75;2.25;;;10.00;99.90;;;;;;4247690;27;20092;-55
2023/11/11 04:24:26;;;;;;;5.85;1.55;;;10.10;99.90;;;;;;4248188;27;20051;-55
2023/11/11 04:26:28;;;;;;;4.10;1.30;;;10.10;99.90;;;;;;4248120;27;20058;-54
2023/11/11 04:28:30;;;;;;;4.95;1.42;;;10.10;99.90;;;;;;4248198;27;20405;-55
2023/11/11 04:30:32;;;;;;;7.25;1.92;;;10.10;99.90;;;;;;4247926;27;20043;-54
2023/11/11 04:32:35;;;;;;;7.43;2.00;;;10.30;99.90;;;;;;4247943;27;20043;-55
2023/11/11 04:34:38;;;;;;;5.72;1.50;;;10.30;99.90;;;;;;4247960;27;20474;-54
2023/11/11 04:36:42;;;;;;;6.28;2.00;;;10.40;99.90;;;;;;4248734;27;20047;-55
2023/11/11 04:38:44;;;;;;;7.43;1.75;;;10.40;99.90;;;;;;4249105;27;20103;-55
2023/11/11 04:40:49;;;;;;;5.65;1.85;;;10.40;99.90;;;;;;4248111;27;20043;-55
2023/11/11 04:42:53;;;;;;;5.38;2.00;;;10.40;99.90;;;;;;4247637;27;20096;-55
2023/11/11 04:44:56;;;;;;;6.82;1.65;;;10.40;99.90;;;;;;4247704;27;20039;-54
2023/11/11 04:46:58;;;;;;;6.68;2.35;;;10.40;99.90;;;;;;4247917;27;20050;-54
2023/11/11 04:49:00;;;;;;;7.47;2.30;;;10.30;99.90;;;;;;4247815;27;20071;-53
2023/11/11 04:51:05;;;;;;;6.68;1.73;;;10.20;99.90;;;;;;4247418;27;20122;-54
2023/11/11 04:53:07;;;;;;;7.68;2.53;;;10.20;99.90;;;;;;4247740;27;20513;-55
2023/11/11 04:55:09;;;;;;;6.03;1.77;;;10.10;99.90;;;;;;4247999;27;20648;-54
2023/11/11 04:57:11;;;;;;;6.90;2.00;;;10.20;99.90;;;;;;4247903;27;20043;-54
2023/11/11 04:59:13;;;;;;;4.03;1.77;;;10.20;99.90;;;;;;4230155;28;20054;-54
2023/11/11 05:01:15;;;;;;;6.72;1.98;;;10.00;99.90;;;;;;4247944;27;20051;-54
2023/11/11 05:03:18;;;;;;;6.60;2.13;;;9.90;99.90;;;;;;4247918;27;20055;-56
2023/11/11 05:05:20;;;;;;;9.45;1.98;;;9.90;99.90;;;;;;4247732;27;20063;-55
2023/11/11 05:07:24;;;;;;;6.63;2.08;;;10.00;99.90;;;;;;4248003;27;20497;-54
2023/11/11 05:09:29;;;;;;;8.02;2.50;;;10.00;99.90;;;;;;4247714;27;20463;-54
2023/11/11 05:11:31;;;;;;;7.47;1.85;;;9.90;99.90;;;;;;4247652;27;20054;-55
2023/11/11 05:13:36;;;;;;;5.63;1.80;;;9.90;99.90;;;;;;4247521;27;20074;-54
2023/11/11 05:15:58;;;;;;;;;;;9.90;99.90;;;;;;4248035;28;20050;-54
2023/11/11 05:18:01;;;;;;;10.52;1.90;;;9.90;99.90;;;;;;4247641;28;19919;-54
2023/11/11 05:20:07;;;;;;;8.13;1.92;;;9.80;99.90;;;;;;4229091;28;20047;-55
2023/11/11 05:22:09;;;;;;;;;;;9.90;99.90;;;;;;4250510;27;20127;-55
2023/11/11 05:24:13;;;;;;;5.63;1.88;;;9.80;99.90;;;;;;4251132;27;19919;-54
2023/11/11 05:26:15;;;;;;;14.07;2.75;;;9.80;99.90;;;;;;4251046;27;20111;-55
2023/11/11 05:28:20;;;;;;;8.18;2.53;;;9.80;99.90;;;;;;4250948;27;20093;-54
2023/11/11 05:30:22;;;;;;;9.00;2.08;;;9.80;99.90;;;;;;4250945;27;20115;-54
2023/11/11 05:32:25;;;;;;;7.80;1.98;;;9.80;99.90;;;;;;4250941;27;20409;-54
2023/11/11 05:34:27;;;;;;;9.30;2.00;;;9.70;99.90;;;;;;4250795;27;20054;-54
2023/11/11 05:36:32;;;;;;;7.65;1.77;;;9.70;99.90;;;;;;4250791;27;20047;-54
2023/11/11 05:38:34;;;;;;;;;;;9.70;99.90;;;;;;4251377;27;20099;-54
2023/11/11 05:40:37;;;;;;;12.85;3.08;;;9.70;99.90;;;;;;4250484;27;19972;-54
2023/11/11 05:42:39;;;;;;;5.93;1.70;;;9.60;99.90;;;;;;4250525;27;20043;-53
2023/11/11 05:44:41;;;;;;;7.78;1.90;;;9.80;99.90;;;;;;4250617;27;20047;-54
2023/11/11 05:46:43;;;;;;;6.22;1.70;;;9.70;99.90;;;;;;4250560;27;20039;-54
2023/11/11 05:48:46;;;;;;;7.32;2.22;;;9.70;99.90;;;;;;4250324;27;20039;-54
2023/11/11 05:50:49;;;;;;;9.15;2.15;;;9.70;99.90;;;;;;4250780;27;20118;-55
2023/11/11 05:52:53;;;;;;;4.38;1.95;;;9.80;99.90;;;;;;4250967;27;20046;-53
2023/11/11 05:54:55;;;;;;;6.28;1.85;;;9.80;99.90;;;;;;4251101;27;20073;-54
2023/11/11 05:56:58;;;;;;;7.85;1.88;;;9.80;99.90;;;;;;4250927;27;20046;-54
2023/11/11 05:59:01;;;;;;;8.40;1.90;;;9.80;99.90;;;;;;4250881;27;20051;-54
2023/11/11 06:01:05;;;;;;;5.70;1.85;;;9.80;99.90;;;;;;4250384;27;20053;-55
2023/11/11 06:03:08;;;;;;;6.43;2.30;;;9.80;99.90;;;;;;4250030;27;20111;-54
2023/11/11 06:05:10;;;;;;;8.15;2.42;;;9.90;99.90;;;;;;4250306;27;20054;-53
2023/11/11 06:07:12;;;;;;;6.85;1.90;;;9.90;99.90;;;;;;4250497;27;20039;-54
2023/11/11 06:09:15;;;;;;;6.43;2.00;;;10.00;99.90;;;;;;4250303;27;20043;-53
2023/11/11 06:11:17;;;;;;;7.00;1.90;;;10.00;99.90;;;;;;4250295;27;20074;-54
2023/11/11 06:13:21;;;;;;;7.90;1.90;;;9.90;99.90;;;;;;4250136;27;20039;-56
2023/11/11 06:15:23;;;;;;;7.88;2.10;;;9.90;99.90;;;;;;4250415;27;20047;-55
2023/11/11 06:17:25;;;;;;;8.57;2.05;;;10.00;99.90;;;;;;4250486;27;20582;-56
2023/11/11 06:19:28;;;;;;;6.80;1.98;;;10.10;99.90;;;;;;4250325;27;20383;-54
2023/11/11 06:21:30;;;;;;;5.07;1.80;;;9.90;99.90;;;;;;4250081;27;20486;-54
2023/11/11 06:23:33;;;;;;;6.35;2.17;;;9.90;99.90;;;;;;4250051;27;20051;-54
2023/11/11 06:25:38;;;;;;;9.73;2.00;;;9.80;99.90;;;;;;4250135;27;20122;-55
2023/11/11 06:27:42;;;;;;;6.72;1.65;;;9.90;99.90;;;;;;4249952;27;20046;-53
2023/11/11 06:29:45;;;;;;;6.38;1.75;;;9.90;99.90;;;;;;4250101;27;20104;-54
2023/11/11 06:31:47;;;;;;;5.35;2.08;;;10.00;99.90;;;;;;4249745;27;20401;-54
2023/11/11 06:33:50;;;;;;;5.38;1.77;;;9.90;99.90;;;;;;4249719;27;20043;-54
2023/11/11 06:35:52;;;;;;;9.30;2.47;;;10.00;99.90;;;;;;4249813;27;20046;-54
2023/11/11 06:37:57;;;;;;;11.70;2.10;;;10.00;99.90;;;;;;4249969;27;20103;-54
2023/11/11 06:40:00;;;;;;;9.00;2.10;;;10.00;99.90;;;;;;4249832;27;20103;-54
2023/11/11 06:42:02;;;;;;;11.27;2.70;;;10.00;99.90;;;;;;4249558;27;20047;-54
2023/11/11 06:44:05;;;;;;;6.18;2.35;;;10.00;99.90;;;;;;4249527;27;20066;-54
2023/11/11 06:46:08;;;;;;;6.50;1.90;;;10.00;99.90;;;;;;4249134;27;20043;-56
2023/11/11 06:48:10;;;;;;;8.23;2.03;;;9.90;99.90;;;;;;4249242;27;20413;-55
2023/11/11 06:50:13;;;;;;;6.68;2.10;;;9.90;99.90;;;;;;4249686;27;20043;-56
2023/11/11 06:52:15;;;;;;;7.93;2.05;;;9.80;99.90;;;;;;4249793;27;20043;-55
2023/11/11 06:54:17;;;;;;;8.77;2.33;;;9.90;99.90;;;;;;4249602;27;20134;-54
2023/11/11 06:56:20;;;;;;;9.75;1.98;;;10.00;99.90;;;;;;4249570;27;20050;-53
2023/11/11 06:58:22;;;;;;;9.68;2.00;;;10.00;99.90;;;;;;4249687;27;20069;-55
2023/11/11 07:00:25;;;;;;;11.60;2.53;;;10.00;99.90;;;;;;4231716;28;20039;-54
2023/11/11 07:02:29;;;;;;;9.90;2.30;;;10.00;99.90;;;;;;4249686;27;20054;-54
2023/11/11 07:04:31;;;;;;;11.25;1.92;;;10.10;99.90;;;;;;4249560;27;20142;-54
2023/11/11 07:06:34;;;;;;;8.55;2.72;;;10.10;99.90;;;;;;4249302;27;20459;-54
2023/11/11 07:08:36;;;;;;;7.60;2.25;;;10.00;99.90;;;;;;4249523;27;20069;-55
2023/11/11 07:10:39;;;;;;;7.68;2.13;;;10.00;99.90;;;;;;4249405;27;20046;-54
2023/11/11 07:12:46;;;;;;;5.07;2.03;;;9.90;99.90;;;;;;4249971;27;20058;-54
2023/11/11 07:14:48;;;;;;;10.18;1.70;;;10.00;99.90;;;;;;4250006;27;20043;-55
2023/11/11 07:16:50;;;;;;;9.73;2.25;;;10.10;99.90;;;;;;4249125;27;20039;-54
2023/11/11 07:18:54;;;;;;;9.07;2.08;;;10.00;99.90;;;;;;4249548;27;20446;-57
2023/11/11 07:20:57;;;;;;;6.65;2.03;;;10.00;99.90;;;;;;4249412;27;20100;-55
2023/11/11 07:22:59;;;;;;;9.20;1.75;;;9.90;99.90;;;;;;4249984;27;20546;-54
2023/11/11 07:25:01;;;;;;;6.32;1.80;;;10.00;99.90;;;;;;4250001;27;20118;-56
2023/11/11 07:27:05;;;;;;;10.40;2.42;;;10.00;99.90;;;;;;4249412;27;20121;-54
2023/11/11 07:29:08;;;;;;;7.15;2.05;;;10.10;99.90;;;;;;4249111;27;20040;-54
2023/11/11 07:31:10;;;;;;;7.13;2.10;;;10.10;99.90;;;;;;4248691;27;20039;-54
2023/11/11 07:33:12;;;;;;;9.98;2.40;;;10.20;99.90;;;;;;4248998;27;20462;-54
2023/11/11 07:35:15;;;;;;;8.25;1.95;;;10.20;99.90;;;;;;4248946;27;20043;-55
2023/11/11 07:37:17;;;;;;;11.52;2.40;;;10.20;99.90;;;;;;4248580;27;20043;-53
2023/11/11 07:39:19;;;;;;;10.88;2.03;;;10.20;99.90;;;;;;4249094;27;20043;-54
2023/11/11 07:41:23;;;;;;;7.65;2.40;;;10.20;99.90;;;;;;4248921;27;20078;-54
2023/11/11 07:43:25;;;;;;;8.95;2.13;;;10.30;99.90;;;;;;4248966;27;20332;-54
2023/11/11 07:45:27;;;;;;;9.40;2.03;;;10.20;99.90;;;;;;4248077;27;20069;-54
2023/11/11 07:47:30;;;;;;;8.23;2.13;;;10.20;99.90;;;;;;4248755;27;20065;-54
2023/11/11 07:49:32;;;;;;;6.22;2.00;;;10.10;99.90;;;;;;4230484;28;20036;-53
2023/11/11 07:51:36;;;;;;;5.35;2.17;;;10.20;99.90;;;;;;4248818;27;20383;-53
2023/11/11 07:53:38;;;;;;;8.50;2.20;;;10.20;99.90;;;;;;4248628;27;20049;-53
2023/11/11 07:55:40;;;;;;;6.80;1.88;;;10.30;99.90;;;;;;4248653;27;20043;-54
2023/11/11 07:57:43;;;;;;;3.67;1.52;;;10.10;99.90;;;;;;4248702;27;20050;-53
2023/11/11 07:59:48;;;;;;;;;;;10.10;99.90;;;;;;4248996;27;20047;-54
2023/11/11 08:01:50;;;;;;;10.65;2.22;;;10.00;99.90;;;;;;4248623;27;19966;-54
2023/11/11 08:03:53;;;;;;;7.30;2.00;;;10.00;99.90;;;;;;4248439;27;20051;-54
2023/11/11 08:05:55;;;;;;;7.90;2.20;;;10.00;99.90;;;;;;4248789;27;20043;-55
2023/11/11 08:07:59;;;;;;;5.85;1.85;;;10.10;99.90;;;;;;4248970;27;20043;-54
2023/11/11 08:10:19;;;;;;;11.32;2.50;;;10.10;99.90;;;;;;4248678;27;20054;-54
2023/11/11 08:12:21;;;;;;;8.00;2.22;;;10.10;99.90;;;;;;4248614;27;20053;-57
2023/11/11 08:14:23;;;;;;;7.93;2.20;;;10.20;99.90;;;;;;4247257;27;20066;-55
2023/11/11 08:16:25;;;;;;;8.60;2.10;;;10.20;99.90;;;;;;4248169;27;20486;-55
2023/11/11 08:18:28;;;;;;;5.38;1.80;;;10.30;99.90;;;;;;4229936;28;20039;-54
2023/11/11 08:20:41;;;;;;;8.73;2.40;;;10.20;99.90;;;;;;4231401;27;20113;-54
2023/11/11 08:22:44;;;;;;;6.93;2.33;;;10.20;99.90;;;;;;4247952;27;20405;-54
2023/11/11 08:24:49;;;;;;;8.90;1.98;;;10.10;99.90;;;;;;4248087;27;20055;-54
2023/11/11 08:26:51;;;;;;;9.27;2.22;;;10.20;99.90;;;;;;4248189;27;20039;-54
2023/11/11 08:28:53;;;;;;;8.10;1.88;;;10.20;99.90;;;;;;4247725;27;20066;-54
2023/11/11 08:30:55;;;;;;;7.35;1.80;;;10.30;99.90;;;;;;4247948;27;20050;-54
2023/11/11 08:32:58;;;;;;;9.35;2.10;;;10.40;99.90;;;;;;4229935;28;20108;-55
2023/11/11 08:35:00;;;;;;;8.85;2.13;;;10.40;99.90;;;;;;4248151;27;20050;-53
2023/11/11 08:37:04;;;;;;;6.45;2.03;;;10.50;99.90;;;;;;4248074;27;20127;-54
2023/11/11 08:39:07;;;;;;;8.73;1.50;;;10.50;99.90;;;;;;4247972;27;20077;-53
2023/11/11 08:41:12;;;;;;;10.18;2.25;;;10.50;99.90;;;;;;4247910;27;20047;-54
2023/11/11 08:43:14;;;;;;;9.43;2.58;;;10.50;99.90;;;;;;4247831;27;20051;-55
2023/11/11 08:45:16;;;;;;;8.00;2.33;;;10.50;99.90;;;;;;4248013;27;20050;-54
2023/11/11 08:47:19;;;;;;;11.45;2.33;;;10.50;99.90;;;;;;4247740;27;20049;-55
2023/11/11 08:49:21;;;;;;;9.75;2.00;;;10.60;99.90;;;;;;4247797;27;20054;-53
2023/11/11 08:51:24;;;;;;;7.88;2.05;;;10.60;99.90;;;;;;4248290;27;20039;-56
2023/11/11 08:53:27;;;;;;;6.70;2.30;;;10.50;99.90;;;;;;4250586;27;20047;-54
2023/11/11 08:55:29;;;;;;;8.07;2.45;;;10.50;99.90;;;;;;4231561;28;20043;-55
2023/11/11 08:57:32;;;;;;;6.18;2.00;;;10.60;99.90;;;;;;4247249;27;20134;-54
2023/11/11 08:59:35;;;;;;;5.38;1.70;;;10.70;99.90;;;;;;4248070;27;20439;-53
2023/11/11 09:01:37;;;;;;;10.32;2.25;;;10.80;99.90;;;;;;4247670;27;20051;-54
2023/11/11 09:03:39;;;;;;;8.00;2.13;;;10.70;99.90;;;;;;4247451;27;20059;-53
2023/11/11 09:05:41;;;;;;;8.13;2.20;;;10.80;99.90;;;;;;4247972;27;20515;-53
2023/11/11 09:07:43;;;;;;;7.05;2.45;;;10.90;99.90;;;;;;4247536;27;20051;-53
2023/11/11 09:09:45;;;;;;;10.23;2.45;;;10.90;99.90;;;;;;4247629;27;20047;-54
2023/11/11 09:11:47;;;;;;;8.55;2.00;;;10.90;99.90;;;;;;4246959;27;20055;-53
2023/11/11 09:13:52;;;;;;;6.32;1.75;;;10.90;99.90;;;;;;4247621;27;20416;-53
2023/11/11 09:15:54;;;;;;;7.72;2.22;;;11.00;99.90;;;;;;4247642;27;20067;-55
2023/11/11 09:17:56;;;;;;;6.95;1.90;;;11.00;99.90;;;;;;4247412;28;20067;-55
2023/11/11 09:19:58;;;;;;;6.88;2.20;;;11.00;99.90;;;;;;4247602;28;20047;-54
2023/11/11 09:22:04;;;;;;;7.18;2.35;;;11.10;99.90;;;;;;4229510;28;20048;-55
2023/11/11 09:24:10;;;;;;;7.82;2.15;;;11.00;99.90;;;;;;4247663;28;20047;-55
2023/11/11 09:26:13;;;;;;;8.93;2.33;;;10.90;99.90;;;;;;4229106;28;20051;-55
2023/11/11 09:28:15;;;;;;;8.05;2.53;;;11.10;99.90;;;;;;4247420;28;20039;-54
2023/11/11 09:30:22;;;;;;;8.48;2.00;;;11.00;99.90;;;;;;4247278;28;20070;-54
2023/11/11 09:32:24;;;;;;;11.32;2.50;;;11.10;99.90;;;;;;4229616;28;20456;-54
2023/11/11 09:34:26;;;;;;;13.27;2.47;;;11.10;99.90;;;;;;4247473;28;20067;-54
2023/11/11 09:36:29;;;;;;;7.45;2.13;;;11.10;99.90;;;;;;4247406;28;20142;-56
2023/11/11 09:38:32;;;;;;;8.52;2.47;;;11.10;99.90;;;;;;4247375;28;20047;-55
2023/11/11 09:40:34;;;;;;;6.47;2.30;;;11.10;99.90;;;;;;4247161;28;20051;-55
2023/11/11 09:42:40;;;;;;;5.82;2.13;;;11.10;99.90;;;;;;4247289;28;20039;-55
2023/11/11 09:44:43;;;;;;;8.23;2.00;;;11.10;99.90;;;;;;4247201;28;20074;-54
2023/11/11 09:46:56;;;;;;;9.50;2.20;;;11.20;99.90;;;;;;4246978;27;20047;-54
2023/11/11 09:48:58;;;;;;;6.68;2.00;;;11.20;99.90;;;;;;4247287;28;20146;-55
2023/11/11 09:51:03;;;;;;;9.93;2.50;;;11.30;99.90;;;;;;4247289;28;20452;-54
2023/11/11 09:53:05;;;;;;;6.72;2.38;;;11.30;99.90;;;;;;4247183;28;20831;-54
2023/11/11 09:55:10;;;;;;;8.30;2.28;;;11.40;99.90;;;;;;4246880;28;20522;-54
2023/11/11 09:57:16;;;;;;;7.18;1.98;;;11.40;99.90;;;;;;4247404;28;20062;-54
2023/11/11 09:59:19;;;;;;;6.88;2.05;;;11.30;99.90;;;;;;4247000;28;20047;-55
2023/11/11 10:01:21;;;;;;;11.25;2.53;;;11.40;99.90;;;;;;4247098;28;20107;-55
2023/11/11 10:03:25;;;;;;;10.52;2.42;;;11.40;99.90;;;;;;4246815;28;20104;-54
2023/11/11 10:05:27;;;;;;;8.02;1.88;;;11.50;99.90;;;;;;4247251;28;20047;-54
2023/11/11 10:07:29;;;;;;;7.45;2.30;;;11.40;99.90;;;;;;4247450;27;20046;-54
2023/11/11 10:09:31;;;;;;;9.15;2.53;;;11.40;99.90;;;;;;4250228;27;20474;-59
2023/11/11 10:11:34;;;;;;;8.27;2.28;;;11.40;99.90;;;;;;4251110;27;20069;-60
2023/11/11 10:13:37;;;;;;;6.47;1.80;;;11.40;99.90;;;;;;4250726;27;20078;-55
2023/11/11 10:15:39;;;;;;;7.95;2.40;;;11.40;99.90;;;;;;4250202;27;20043;-54
2023/11/11 10:17:41;;;;;;;8.70;2.90;;;11.50;99.90;;;;;;4250121;27;20046;-54
2023/11/11 10:19:45;;;;;;;7.53;2.45;;;11.30;99.90;;;;;;4250264;27;20043;-53
2023/11/11 10:22:00;;;;;;;7.03;1.88;;;11.40;99.90;;;;;;4250111;27;20043;-55
2023/11/11 10:24:03;;;;;;;5.97;1.70;;;11.40;99.90;;;;;;4249652;27;20043;-53
2023/11/11 10:26:06;;;;;;;11.23;2.78;;;11.50;99.90;;;;;;4249976;27;20043;-53
2023/11/11 10:28:14;;;;;;;6.07;2.13;;;11.40;99.90;;;;;;4250316;27;20129;-54
2023/11/11 10:30:19;;;;;;;8.65;2.33;;;11.30;99.90;;;;;;4249820;27;20050;-54
2023/11/11 10:32:21;;;;;;;8.77;2.37;;;11.40;99.90;;;;;;4250137;27;20043;-54
2023/11/11 10:34:23;;;;;;;9.07;2.63;;;11.40;99.90;;;;;;4249846;27;20763;-56
2023/11/11 10:36:27;;;;;;;11.55;2.30;;;11.60;99.90;;;;;;4249981;27;20092;-53
2023/11/11 10:38:29;;;;;;;8.13;2.63;;;11.60;99.90;;;;;;4249694;27;20130;-54
2023/11/11 10:40:32;;;;;;;8.25;2.13;;;11.80;99.90;;;;;;4249702;27;20114;-54
2023/11/11 10:42:35;;;;;;;6.13;2.13;;;11.80;99.90;;;;;;4249899;27;20096;-53